Time;durP1;ratioP1;P1;durP2;ratioP2;P2;SDS_P1;SDS_P2;PMS_P1;PMS_P2;Temp;Humidity;BMP_temperature;BMP_pressure;BME280_temperature;BME280_humidity;BME280_pressure;Samples;Min_cycle;Max_cycle;Signal;HPM_P1;HPM_P2
2023/04/16 00:00:08;;;;;;;1.55;0.77;;;16.50;75.70;;;;;;5033643;28;20415;-69
2023/04/16 00:02:34;;;;;;;0.60;0.60;;;16.50;75.60;;;;;;5033308;28;20029;-69
2023/04/16 00:05:00;;;;;;;0.98;0.70;;;16.50;75.50;;;;;;5032576;28;20143;-69
2023/04/16 00:07:25;;;;;;;1.23;0.90;;;16.50;75.50;;;;;;5033612;28;20037;-69
2023/04/16 00:09:51;;;;;;;1.30;0.90;;;16.40;75.50;;;;;;5033434;28;20021;-69
2023/04/16 00:12:17;;;;;;;2.20;0.80;;;16.50;75.50;;;;;;5032325;28;20030;-68
2023/04/16 00:14:42;;;;;;;1.10;0.80;;;16.50;75.60;;;;;;5031728;28;20036;-68
2023/04/16 00:17:09;;;;;;;0.85;0.70;;;16.50;75.50;;;;;;5033294;28;20481;-68
2023/04/16 00:19:34;;;;;;;1.85;0.90;;;16.40;75.50;;;;;;5032378;28;20029;-68
2023/04/16 00:22:00;;;;;;;1.27;0.70;;;16.50;75.50;;;;;;5032922;28;20021;-68
2023/04/16 00:24:26;;;;;;;1.73;0.70;;;16.50;75.50;;;;;;5032119;28;20027;-68
2023/04/16 00:26:51;;;;;;;1.63;0.70;;;16.50;75.50;;;;;;5015288;28;20025;-68
2023/04/16 00:29:17;;;;;;;0.77;0.60;;;16.50;75.50;;;;;;5031936;28;20022;-68
2023/04/16 00:31:43;;;;;;;1.20;0.70;;;16.40;75.40;;;;;;5031884;28;20030;-68
2023/04/16 00:34:08;;;;;;;0.60;0.60;;;16.40;75.40;;;;;;5031887;28;20025;-68
2023/04/16 00:36:34;;;;;;;0.80;0.70;;;16.40;75.40;;;;;;5033085;28;20030;-68
2023/04/16 00:38:59;;;;;;;1.30;1.00;;;16.40;75.40;;;;;;5033023;28;20032;-68
2023/04/16 00:41:25;;;;;;;1.02;0.73;;;16.40;75.40;;;;;;5031443;28;20025;-68
2023/04/16 00:43:51;;;;;;;1.33;0.50;;;16.40;75.40;;;;;;5032762;28;20048;-68
2023/04/16 00:46:18;;;;;;;2.15;1.08;;;16.40;75.30;;;;;;5031813;28;20083;-69
2023/04/16 00:48:44;;;;;;;0.90;0.70;;;16.40;75.30;;;;;;5031668;28;20092;-69
2023/04/16 00:51:09;;;;;;;1.75;0.80;;;16.40;75.30;;;;;;5031434;28;20152;-69
2023/04/16 00:53:35;;;;;;;1.10;0.85;;;16.40;75.30;;;;;;5031414;28;20033;-69
2023/04/16 00:56:05;;;;;;;0.90;0.80;;;16.40;75.30;;;;;;5014862;28;20034;-69
2023/04/16 00:58:31;;;;;;;1.33;0.90;;;16.40;75.30;;;;;;5015197;28;20044;-68
2023/04/16 01:00:57;;;;;;;0.63;0.60;;;16.40;75.30;;;;;;5031478;28;20033;-68
2023/04/16 01:03:23;;;;;;;1.88;0.80;;;16.40;75.30;;;;;;5032554;28;20159;-68
2023/04/16 01:05:49;;;;;;;0.60;0.60;;;16.40;75.30;;;;;;5031206;28;20032;-69
2023/04/16 01:08:21;;;;;;;0.85;0.63;;;16.40;75.30;;;;;;5031679;28;20013;-69
2023/04/16 01:10:47;;;;;;;0.65;0.60;;;16.40;75.20;;;;;;5031230;28;20376;-69
2023/04/16 01:13:13;;;;;;;1.75;0.85;;;16.40;75.20;;;;;;5032427;28;20029;-69
2023/04/16 01:15:39;;;;;;;1.73;0.82;;;16.40;75.20;;;;;;5031146;28;20038;-69
2023/04/16 01:18:18;;;;;;;1.17;0.90;;;16.40;75.20;;;;;;5032332;28;20036;-68
2023/04/16 01:20:45;;;;;;;1.27;0.80;;;16.40;75.20;;;;;;5014769;28;20120;-68
2023/04/16 01:23:10;;;;;;;1.20;0.93;;;16.30;75.10;;;;;;5031890;28;20447;-68
2023/04/16 01:25:36;;;;;;;0.75;0.60;;;16.30;75.10;;;;;;5031265;28;20068;-68
2023/04/16 01:28:02;;;;;;;1.50;0.80;;;16.30;75.10;;;;;;5030345;28;20018;-68
2023/04/16 01:30:27;;;;;;;1.20;0.70;;;16.30;75.10;;;;;;5032367;28;20057;-68
2023/04/16 01:32:53;;;;;;;0.90;0.70;;;16.30;75.10;;;;;;5030869;28;20025;-68
2023/04/16 01:35:19;;;;;;;0.82;0.70;;;16.30;75.00;;;;;;5031109;28;20514;-69
2023/04/16 01:37:45;;;;;;;0.75;0.60;;;16.30;75.00;;;;;;5032092;28;20018;-69
2023/04/16 01:40:10;;;;;;;0.60;0.60;;;16.30;75.00;;;;;;5014539;28;20052;-68
2023/04/16 01:42:36;;;;;;;1.02;0.93;;;16.30;75.00;;;;;;5030664;28;20029;-68
2023/04/16 01:45:02;;;;;;;1.10;0.60;;;16.30;75.00;;;;;;5032226;28;20025;-68
2023/04/16 01:47:28;;;;;;;0.82;0.60;;;16.30;75.00;;;;;;5031054;28;20082;-68
2023/04/16 01:49:54;;;;;;;1.35;0.90;;;16.30;75.00;;;;;;5032071;28;20513;-68
2023/04/16 01:52:20;;;;;;;1.50;0.98;;;16.30;74.90;;;;;;5030725;28;20029;-68
2023/04/16 01:54:45;;;;;;;0.73;0.60;;;16.30;74.90;;;;;;5031841;28;20060;-68
2023/04/16 01:57:11;;;;;;;0.85;0.65;;;16.30;74.90;;;;;;5032013;28;20387;-68
2023/04/16 01:59:36;;;;;;;0.80;0.70;;;16.30;74.90;;;;;;5030798;28;20034;-68
2023/04/16 02:02:12;;;;;;;1.08;0.65;;;16.30;75.00;;;;;;5031878;28;20043;-68
2023/04/16 02:04:42;;;;;;;0.82;0.70;;;16.30;74.90;;;;;;5030720;28;20033;-68
2023/04/16 02:07:07;;;;;;;0.73;0.60;;;16.30;74.90;;;;;;5030583;28;20025;-68
2023/04/16 02:09:34;;;;;;;0.52;0.52;;;16.30;74.90;;;;;;5030661;28;20397;-68
2023/04/16 02:12:02;;;;;;;2.08;0.80;;;16.30;74.90;;;;;;5030743;28;20083;-68
2023/04/16 02:14:27;;;;;;;1.75;0.90;;;16.30;75.00;;;;;;5031978;28;20563;-68
2023/04/16 02:16:53;;;;;;;1.25;0.63;;;16.30;74.80;;;;;;5031861;28;20097;-68
2023/04/16 02:19:19;;;;;;;1.15;0.75;;;16.30;74.80;;;;;;5030623;28;20025;-68
2023/04/16 02:21:44;;;;;;;2.00;0.88;;;16.30;74.80;;;;;;5031451;28;20029;-68
2023/04/16 02:24:10;;;;;;;0.73;0.52;;;16.30;74.80;;;;;;5031693;28;20026;-68
2023/04/16 02:26:36;;;;;;;2.45;0.90;;;16.20;74.80;;;;;;5030640;28;20029;-68
2023/04/16 02:29:01;;;;;;;1.25;0.75;;;16.20;74.80;;;;;;5030425;28;20021;-68
2023/04/16 02:31:27;;;;;;;1.00;0.90;;;16.20;74.80;;;;;;5014245;28;20021;-68
2023/04/16 02:33:53;;;;;;;0.80;0.80;;;16.20;74.70;;;;;;5030493;28;20025;-68
2023/04/16 02:36:19;;;;;;;1.10;0.98;;;16.30;74.80;;;;;;5030461;28;20419;-68
2023/04/16 02:38:45;;;;;;;1.08;0.80;;;16.20;74.70;;;;;;5033121;28;20028;-68
2023/04/16 02:41:10;;;;;;;0.73;0.52;;;16.20;74.70;;;;;;5035044;28;20022;-68
2023/04/16 02:43:36;;;;;;;1.48;0.85;;;16.20;74.70;;;;;;5034045;28;20216;-68
2023/04/16 02:46:02;;;;;;;1.30;0.80;;;16.20;74.70;;;;;;5034950;28;20053;-68
2023/04/16 02:48:27;;;;;;;0.65;0.63;;;16.20;74.70;;;;;;5033890;28;20068;-68
2023/04/16 02:50:53;;;;;;;0.80;0.80;;;16.20;74.70;;;;;;5034887;28;20025;-68
2023/04/16 02:53:19;;;;;;;1.15;0.90;;;16.20;74.70;;;;;;5017246;28;20033;-68
2023/04/16 02:55:51;;;;;;;1.38;0.98;;;16.20;74.60;;;;;;5034874;28;20041;-68
2023/04/16 02:58:18;;;;;;;0.95;0.73;;;16.20;74.60;;;;;;5033809;28;20044;-68
2023/04/16 03:00:43;;;;;;;0.90;0.65;;;16.20;74.70;;;;;;5033524;28;20037;-68
2023/04/16 03:03:09;;;;;;;0.98;0.55;;;16.20;74.60;;;;;;5033268;28;20091;-68
2023/04/16 03:05:35;;;;;;;0.70;0.68;;;16.20;74.60;;;;;;5034791;28;20056;-68
2023/04/16 03:08:00;;;;;;;1.00;0.70;;;16.20;74.60;;;;;;5034874;28;20101;-68
2023/04/16 03:10:27;;;;;;;0.85;0.65;;;16.20;74.60;;;;;;5033528;28;20390;-68
2023/04/16 03:12:52;;;;;;;0.80;0.70;;;16.20;74.60;;;;;;5033632;28;20029;-68
2023/04/16 03:15:18;;;;;;;1.65;0.80;;;16.20;74.60;;;;;;5034374;28;20075;-68
2023/04/16 03:17:43;;;;;;;0.85;0.65;;;16.20;74.60;;;;;;5033411;28;20032;-68
2023/04/16 03:20:09;;;;;;;1.00;0.70;;;16.20;74.60;;;;;;5034155;28;20504;-68
2023/04/16 03:22:35;;;;;;;1.17;0.75;;;16.20;74.60;;;;;;5032998;28;20099;-68
2023/04/16 03:25:01;;;;;;;1.25;0.70;;;16.10;74.50;;;;;;5034417;28;20032;-68
2023/04/16 03:27:26;;;;;;;0.95;0.82;;;16.10;74.50;;;;;;5033230;28;20443;-68
2023/04/16 03:29:52;;;;;;;1.45;0.60;;;16.20;74.50;;;;;;5034213;28;20549;-68
2023/04/16 03:32:18;;;;;;;0.77;0.70;;;16.10;74.40;;;;;;5033070;28;20037;-68
2023/04/16 03:34:43;;;;;;;0.85;0.60;;;16.20;74.50;;;;;;5032901;28;20026;-68
2023/04/16 03:37:10;;;;;;;0.60;0.60;;;16.10;74.50;;;;;;5034163;28;20407;-68
2023/04/16 03:39:36;;;;;;;1.00;0.73;;;16.10;74.40;;;;;;5034084;28;20101;-68
2023/04/16 03:42:02;;;;;;;0.82;0.57;;;16.10;74.50;;;;;;5033914;28;20156;-68
2023/04/16 03:44:28;;;;;;;0.90;0.75;;;16.10;74.40;;;;;;5016322;28;20014;-68
2023/04/16 03:46:54;;;;;;;0.80;0.75;;;16.10;74.40;;;;;;5032866;28;20022;-68
2023/04/16 03:49:19;;;;;;;1.02;0.60;;;16.10;74.40;;;;;;5033554;28;20078;-70
2023/04/16 03:51:45;;;;;;;1.20;0.68;;;16.10;74.40;;;;;;5033404;28;20033;-68
2023/04/16 03:54:11;;;;;;;1.40;0.75;;;16.10;74.40;;;;;;5032425;28;20045;-68
2023/04/16 03:56:38;;;;;;;1.00;0.70;;;16.10;74.40;;;;;;5032723;28;20100;-68
2023/04/16 03:59:04;;;;;;;0.70;0.70;;;16.10;74.40;;;;;;5033671;28;20049;-68
2023/04/16 04:01:31;;;;;;;0.60;0.60;;;16.10;74.40;;;;;;5033402;28;20050;-68
2023/04/16 04:03:56;;;;;;;1.15;0.60;;;16.10;74.30;;;;;;5033511;28;20029;-68
2023/04/16 04:06:22;;;;;;;0.70;0.70;;;16.10;74.30;;;;;;5033611;28;20105;-68
2023/04/16 04:08:48;;;;;;;1.02;0.65;;;16.10;74.30;;;;;;5032392;28;20076;-68
2023/04/16 04:11:13;;;;;;;0.50;0.50;;;16.10;74.30;;;;;;5033366;28;20025;-68
2023/04/16 04:13:39;;;;;;;1.08;0.68;;;16.10;74.20;;;;;;5033397;28;20492;-68
2023/04/16 04:16:05;;;;;;;0.73;0.50;;;16.10;74.20;;;;;;5033372;28;20040;-68
2023/04/16 04:18:30;;;;;;;1.25;0.70;;;16.10;74.30;;;;;;5032060;28;20030;-68
2023/04/16 04:20:56;;;;;;;0.75;0.50;;;16.10;74.30;;;;;;5033169;28;20033;-68
2023/04/16 04:23:22;;;;;;;0.80;0.70;;;16.10;74.30;;;;;;5031886;28;20101;-68
2023/04/16 04:25:48;;;;;;;1.13;0.90;;;16.10;74.20;;;;;;5033263;28;20473;-68
2023/04/16 04:28:13;;;;;;;1.13;0.70;;;16.10;74.20;;;;;;5015503;28;20029;-68
2023/04/16 04:30:39;;;;;;;2.95;0.70;;;16.10;74.20;;;;;;5031957;28;20025;-68
2023/04/16 04:33:05;;;;;;;0.68;0.68;;;16.00;74.20;;;;;;5032864;28;20442;-68
2023/04/16 04:35:30;;;;;;;1.05;0.70;;;16.00;74.10;;;;;;5032979;28;20500;-68
2023/04/16 04:37:56;;;;;;;0.85;0.80;;;16.00;74.10;;;;;;5033067;28;20021;-68
2023/04/16 04:40:22;;;;;;;1.48;0.70;;;16.10;74.10;;;;;;5032891;28;20026;-68
2023/04/16 04:42:47;;;;;;;1.48;0.60;;;16.00;74.10;;;;;;5032801;28;20061;-68
2023/04/16 04:45:13;;;;;;;0.60;0.60;;;16.00;74.10;;;;;;5032835;28;20155;-68
2023/04/16 04:47:38;;;;;;;1.40;0.57;;;16.00;74.10;;;;;;5032684;28;20074;-68
2023/04/16 04:50:05;;;;;;;1.02;0.77;;;16.00;74.00;;;;;;5032719;28;20103;-68
2023/04/16 04:52:30;;;;;;;0.95;0.70;;;16.00;74.10;;;;;;5032624;28;20033;-68
2023/04/16 04:54:56;;;;;;;2.47;0.80;;;16.00;74.00;;;;;;5032709;28;20045;-68
2023/04/16 04:57:21;;;;;;;0.90;0.73;;;16.00;74.00;;;;;;5032861;28;20446;-68
2023/04/16 04:59:47;;;;;;;1.13;0.75;;;16.00;74.00;;;;;;5032347;28;20072;-68
2023/04/16 05:02:13;;;;;;;0.70;0.60;;;16.00;74.00;;;;;;5030416;28;20069;-68
2023/04/16 05:04:38;;;;;;;0.90;0.80;;;16.00;74.00;;;;;;5032532;28;20056;-68
2023/04/16 05:07:05;;;;;;;1.23;0.77;;;16.00;74.00;;;;;;5032621;28;20074;-68
2023/04/16 05:09:31;;;;;;;0.65;0.60;;;16.00;74.00;;;;;;5031256;28;20477;-68
2023/04/16 05:11:56;;;;;;;0.60;0.60;;;16.00;74.00;;;;;;5032510;28;20029;-68
2023/04/16 05:14:22;;;;;;;0.70;0.70;;;16.00;74.00;;;;;;5032356;28;20033;-68
2023/04/16 05:16:47;;;;;;;2.03;0.73;;;16.00;74.00;;;;;;5031138;28;20040;-68
2023/04/16 05:19:13;;;;;;;0.82;0.70;;;16.00;74.00;;;;;;5031035;28;20438;-68
2023/04/16 05:21:39;;;;;;;0.85;0.52;;;16.00;74.00;;;;;;5032383;28;20029;-68
2023/04/16 05:24:05;;;;;;;0.93;0.70;;;16.00;74.00;;;;;;5032517;28;20032;-68
2023/04/16 05:26:30;;;;;;;0.50;0.50;;;16.00;74.00;;;;;;5031207;28;20021;-68
2023/04/16 05:28:56;;;;;;;1.23;0.70;;;16.00;74.50;;;;;;5032363;28;20372;-68
2023/04/16 05:31:22;;;;;;;0.70;0.70;;;15.90;73.90;;;;;;5030698;28;20026;-68
2023/04/16 05:33:47;;;;;;;1.52;0.80;;;16.00;74.00;;;;;;5032306;28;20099;-68
2023/04/16 05:36:13;;;;;;;0.95;0.60;;;16.00;74.00;;;;;;5032245;28;20026;-68
2023/04/16 05:38:39;;;;;;;0.93;0.52;;;15.90;73.90;;;;;;5032225;28;20022;-68
2023/04/16 05:41:04;;;;;;;0.70;0.70;;;15.90;73.90;;;;;;5031024;28;20057;-68
2023/04/16 05:43:30;;;;;;;1.10;0.55;;;15.90;73.90;;;;;;5030757;28;20030;-68
2023/04/16 05:45:56;;;;;;;1.30;0.70;;;16.00;73.90;;;;;;5030878;28;20026;-68
2023/04/16 05:48:21;;;;;;;1.13;0.70;;;16.00;73.90;;;;;;4998150;28;20499;-68
2023/04/16 05:50:48;;;;;;;1.02;0.85;;;15.90;73.90;;;;;;5032047;28;20034;-68
2023/04/16 05:53:13;;;;;;;0.95;0.50;;;15.90;73.80;;;;;;5014505;28;20030;-68
2023/04/16 05:55:39;;;;;;;1.15;0.68;;;15.90;73.80;;;;;;5031953;28;20048;-68
2023/04/16 05:58:05;;;;;;;1.13;0.60;;;15.90;73.80;;;;;;5032092;28;20113;-68
2023/04/16 06:00:33;;;;;;;0.75;0.65;;;15.90;73.80;;;;;;5031565;28;20092;-68
2023/04/16 06:02:59;;;;;;;0.85;0.70;;;15.90;73.90;;;;;;5031134;28;20084;-68
2023/04/16 06:05:28;;;;;;;1.25;0.80;;;15.90;73.80;;;;;;5030668;28;20017;-68
2023/04/16 06:07:54;;;;;;;0.73;0.65;;;15.90;73.80;;;;;;5030980;28;20025;-68
2023/04/16 06:10:20;;;;;;;0.63;0.60;;;15.90;73.90;;;;;;5030666;28;20100;-68
2023/04/16 06:12:46;;;;;;;0.52;0.50;;;15.90;73.80;;;;;;5030734;28;20109;-68
2023/04/16 06:15:11;;;;;;;0.98;0.57;;;15.90;73.80;;;;;;5035444;28;20029;-68
2023/04/16 06:17:37;;;;;;;1.52;0.60;;;15.90;73.80;;;;;;5035677;28;20075;-68
2023/04/16 06:20:03;;;;;;;3.10;0.70;;;15.90;73.80;;;;;;5034464;28;20087;-68
2023/04/16 06:22:29;;;;;;;0.60;0.60;;;15.90;73.80;;;;;;5035283;28;20034;-68
2023/04/16 06:24:55;;;;;;;0.73;0.60;;;15.90;73.80;;;;;;5035759;28;20092;-68
2023/04/16 06:27:20;;;;;;;0.98;0.60;;;15.90;73.80;;;;;;5035332;28;20108;-68
2023/04/16 06:29:46;;;;;;;0.80;0.70;;;15.90;73.80;;;;;;5017498;28;20030;-68
2023/04/16 06:32:11;;;;;;;0.70;0.70;;;15.90;73.80;;;;;;5035386;28;20025;-68
2023/04/16 06:34:38;;;;;;;1.38;0.93;;;15.90;73.80;;;;;;5035100;28;20033;-68
2023/04/16 06:37:03;;;;;;;0.52;0.52;;;15.80;73.70;;;;;;5017827;28;20022;-68
2023/04/16 06:39:29;;;;;;;0.60;0.60;;;15.90;73.80;;;;;;5035245;28;20028;-68
2023/04/16 06:41:55;;;;;;;0.98;0.75;;;15.80;73.70;;;;;;5035012;28;20037;-68
2023/04/16 06:44:20;;;;;;;1.02;0.90;;;15.80;73.70;;;;;;5035133;28;20044;-68
2023/04/16 06:46:46;;;;;;;0.80;0.70;;;15.90;73.80;;;;;;5033789;28;20495;-68
2023/04/16 06:49:12;;;;;;;0.93;0.60;;;15.80;73.70;;;;;;5035164;28;20026;-68
2023/04/16 06:51:37;;;;;;;0.70;0.70;;;15.90;73.80;;;;;;5035192;28;20026;-68
2023/04/16 06:54:03;;;;;;;0.88;0.60;;;15.80;73.70;;;;;;5033762;28;20119;-68
2023/04/16 06:56:29;;;;;;;0.47;0.47;;;15.80;73.70;;;;;;5034732;28;20466;-68
2023/04/16 06:58:56;;;;;;;0.90;0.60;;;15.80;73.70;;;;;;5034764;28;20101;-68
2023/04/16 07:01:22;;;;;;;0.93;0.70;;;15.80;73.70;;;;;;5034744;28;20021;-68
2023/04/16 07:03:47;;;;;;;0.47;0.45;;;15.80;73.70;;;;;;5033744;28;20105;-68
2023/04/16 07:06:13;;;;;;;0.52;0.52;;;15.80;73.70;;;;;;5033637;28;20026;-68
2023/04/16 07:08:39;;;;;;;0.70;0.63;;;15.80;73.80;;;;;;5034695;28;20111;-68
2023/04/16 07:11:04;;;;;;;0.60;0.60;;;15.80;73.70;;;;;;5034594;28;20403;-68
2023/04/16 07:13:30;;;;;;;0.60;0.60;;;15.90;73.80;;;;;;5033482;28;20041;-68
2023/04/16 07:15:56;;;;;;;0.52;0.52;;;15.80;73.70;;;;;;5033531;28;20025;-68
2023/04/16 07:18:21;;;;;;;0.60;0.50;;;15.80;73.70;;;;;;5034609;28;20074;-68
2023/04/16 07:20:47;;;;;;;0.55;0.52;;;15.80;73.70;;;;;;5033197;28;20033;-68
2023/04/16 07:23:12;;;;;;;0.50;0.50;;;15.80;73.70;;;;;;5033367;28;20026;-68
2023/04/16 07:25:39;;;;;;;0.70;0.70;;;15.80;73.70;;;;;;5031964;28;20028;-68
2023/04/16 07:28:04;;;;;;;0.57;0.50;;;15.80;73.70;;;;;;5033320;28;20096;-68
2023/04/16 07:30:33;;;;;;;0.60;0.60;;;15.80;73.80;;;;;;5033011;28;20168;-68
2023/04/16 07:33:00;;;;;;;0.50;0.50;;;15.80;73.80;;;;;;5033384;28;20365;-68
2023/04/16 07:35:26;;;;;;;0.63;0.63;;;15.80;73.80;;;;;;5034069;28;20037;-68
2023/04/16 07:37:51;;;;;;;0.60;0.47;;;15.80;73.70;;;;;;5016680;28;20021;-68
2023/04/16 07:40:17;;;;;;;1.15;0.60;;;15.80;73.80;;;;;;5033930;28;20025;-68
2023/04/16 07:42:43;;;;;;;1.58;0.65;;;15.80;73.80;;;;;;5033885;28;20049;-68
2023/04/16 07:45:08;;;;;;;0.85;0.60;;;15.80;73.80;;;;;;5032940;28;20028;-68
2023/04/16 07:47:34;;;;;;;0.90;0.88;;;15.80;73.80;;;;;;5033955;28;20014;-68
2023/04/16 07:50:00;;;;;;;0.70;0.60;;;15.80;73.80;;;;;;5034081;28;20037;-68
2023/04/16 07:52:26;;;;;;;1.17;0.60;;;15.80;73.90;;;;;;5032588;28;20030;-68
2023/04/16 07:54:51;;;;;;;1.02;0.40;;;15.80;73.90;;;;;;5032164;28;20474;-68
2023/04/16 07:57:17;;;;;;;0.70;0.63;;;15.80;73.80;;;;;;5033858;28;20032;-68
2023/04/16 07:59:43;;;;;;;0.60;0.60;;;15.80;73.80;;;;;;5033652;28;20558;-68
2023/04/16 08:02:12;;;;;;;0.70;0.50;;;15.80;73.90;;;;;;5032430;28;20071;-68
2023/04/16 08:04:37;;;;;;;0.73;0.52;;;15.80;73.90;;;;;;5015808;28;20025;-68
2023/04/16 08:07:03;;;;;;;0.52;0.40;;;15.80;73.90;;;;;;5032512;28;20028;-68
2023/04/16 08:09:28;;;;;;;0.60;0.60;;;15.80;74.90;;;;;;5033669;28;20488;-68
2023/04/16 08:11:54;;;;;;;0.95;0.65;;;15.80;73.90;;;;;;5033393;28;20059;-68
2023/04/16 08:14:20;;;;;;;1.20;0.70;;;15.80;73.90;;;;;;5032515;28;20033;-68
2023/04/16 08:16:46;;;;;;;0.40;0.40;;;15.80;73.90;;;;;;5033801;28;20049;-68
2023/04/16 08:19:11;;;;;;;0.95;0.60;;;15.80;75.00;;;;;;5032239;28;20408;-68
2023/04/16 08:21:37;;;;;;;0.80;0.63;;;15.80;73.90;;;;;;5031873;28;20488;-68
2023/04/16 08:24:03;;;;;;;0.50;0.50;;;15.80;73.90;;;;;;5033079;28;20041;-68
2023/04/16 08:26:28;;;;;;;0.40;0.40;;;15.80;74.00;;;;;;5033216;28;20013;-68
2023/04/16 08:28:54;;;;;;;0.47;0.47;;;15.80;73.90;;;;;;5032100;28;20053;-68
2023/04/16 08:31:20;;;;;;;0.73;0.70;;;15.80;73.90;;;;;;5033175;28;20089;-68
2023/04/16 08:33:45;;;;;;;1.45;0.70;;;15.80;74.40;;;;;;4999099;28;20412;-68
2023/04/16 08:36:11;;;;;;;0.50;0.50;;;15.80;73.90;;;;;;5033021;28;20025;-68
2023/04/16 08:38:36;;;;;;;0.57;0.50;;;15.80;74.00;;;;;;5031659;28;20030;-68
2023/04/16 08:41:04;;;;;;;0.50;0.50;;;15.80;74.00;;;;;;5033135;28;20029;-68
2023/04/16 08:43:33;;;;;;;0.45;0.45;;;15.80;74.00;;;;;;5015440;28;20025;-68
2023/04/16 08:45:59;;;;;;;0.68;0.50;;;15.80;74.00;;;;;;5031833;28;20021;-68
2023/04/16 08:48:25;;;;;;;0.40;0.40;;;15.80;74.00;;;;;;5015529;28;20032;-68
2023/04/16 08:50:51;;;;;;;0.40;0.40;;;15.80;74.00;;;;;;5031790;28;20033;-68
2023/04/16 08:53:18;;;;;;;0.40;0.40;;;15.80;74.00;;;;;;5031406;28;20480;-68
2023/04/16 08:55:46;;;;;;;0.60;0.50;;;15.80;74.00;;;;;;4998652;28;20041;-68
2023/04/16 08:58:17;;;;;;;0.50;0.50;;;15.80;74.00;;;;;;5015286;28;20389;-68
2023/04/16 09:00:44;;;;;;;0.65;0.40;;;15.80;74.00;;;;;;5031501;28;20037;-68
2023/04/16 09:03:10;;;;;;;1.60;0.52;;;15.80;74.10;;;;;;5031453;28;20159;-68
2023/04/16 09:05:36;;;;;;;0.73;0.50;;;15.80;74.10;;;;;;5032625;28;20101;-68
2023/04/16 09:08:03;;;;;;;1.00;0.47;;;15.80;74.10;;;;;;5032313;28;20030;-68
2023/04/16 09:10:29;;;;;;;0.65;0.57;;;15.80;74.10;;;;;;5031479;28;20498;-68
2023/04/16 09:12:55;;;;;;;0.43;0.32;;;15.80;74.10;;;;;;5031432;28;20030;-68
2023/04/16 09:15:21;;;;;;;0.57;0.50;;;15.70;74.00;;;;;;5031486;28;20028;-68
2023/04/16 09:17:47;;;;;;;1.13;0.50;;;15.80;74.10;;;;;;5032448;28;20112;-68
2023/04/16 09:20:13;;;;;;;1.25;0.68;;;15.80;74.10;;;;;;5032652;28;20025;-68
2023/04/16 09:22:39;;;;;;;0.63;0.47;;;15.80;74.20;;;;;;5030755;28;20087;-68
2023/04/16 09:25:05;;;;;;;0.70;0.40;;;15.80;74.20;;;;;;5032503;28;20017;-68
2023/04/16 09:27:31;;;;;;;0.85;0.60;;;15.80;74.20;;;;;;5031481;28;20476;-68
2023/04/16 09:29:56;;;;;;;0.50;0.35;;;15.80;74.20;;;;;;5032450;28;20075;-68
2023/04/16 09:32:26;;;;;;;0.70;0.50;;;15.80;74.20;;;;;;5031245;28;20040;-68
2023/04/16 09:35:01;;;;;;;0.57;0.43;;;15.80;74.20;;;;;;5032370;28;20025;-68
2023/04/16 09:37:30;;;;;;;0.60;0.50;;;15.80;74.20;;;;;;5014475;28;20403;-68
2023/04/16 09:39:57;;;;;;;0.50;0.50;;;15.80;74.20;;;;;;5032251;28;20480;-68
2023/04/16 09:42:27;;;;;;;0.43;0.43;;;15.80;74.20;;;;;;5031044;28;20108;-68
2023/04/16 09:44:53;;;;;;;0.50;0.50;;;15.80;74.20;;;;;;5032127;28;20439;-68
2023/04/16 09:47:19;;;;;;;0.30;0.30;;;15.80;74.20;;;;;;5031046;28;20022;-68
2023/04/16 09:49:45;;;;;;;0.40;0.40;;;15.80;74.20;;;;;;5018052;28;20013;-68
2023/04/16 09:52:19;;;;;;;0.70;0.50;;;15.80;74.30;;;;;;5036300;28;20083;-68
2023/04/16 09:54:49;;;;;;;0.75;0.50;;;15.80;74.20;;;;;;5034881;28;20045;-68
2023/04/16 09:57:19;;;;;;;0.40;0.32;;;15.80;74.20;;;;;;5034794;28;20494;-68
2023/04/16 09:59:45;;;;;;;0.40;0.40;;;15.80;74.30;;;;;;5015333;28;20444;-68
2023/04/16 10:02:11;;;;;;;0.65;0.52;;;15.80;74.20;;;;;;5016409;28;20022;-68
2023/04/16 10:04:50;;;;;;;0.30;0.30;;;15.80;74.30;;;;;;5015064;28;20022;-68
2023/04/16 10:07:15;;;;;;;0.40;0.40;;;15.80;74.20;;;;;;5014830;28;20097;-68
2023/04/16 10:09:41;;;;;;;0.70;0.40;;;15.80;74.30;;;;;;4998766;28;20061;-68
2023/04/16 10:12:07;;;;;;;0.82;0.52;;;15.80;74.30;;;;;;5016259;28;20033;-68
2023/04/16 10:14:33;;;;;;;0.30;0.30;;;15.80;74.30;;;;;;5015079;28;20022;-68
2023/04/16 10:16:59;;;;;;;0.60;0.40;;;15.80;74.30;;;;;;5015999;28;20036;-68
2023/04/16 10:19:30;;;;;;;0.50;0.47;;;15.80;74.30;;;;;;5014721;28;20080;-68
2023/04/16 10:21:56;;;;;;;0.45;0.40;;;15.80;74.30;;;;;;5010104;28;20026;-68
2023/04/16 10:24:21;;;;;;;0.28;0.28;;;15.80;74.30;;;;;;5018198;28;20029;-68
2023/04/16 10:26:47;;;;;;;0.52;0.43;;;15.80;74.30;;;;;;5034466;28;20083;-68
2023/04/16 10:29:12;;;;;;;1.17;0.30;;;15.80;74.30;;;;;;5017842;28;20026;-68
2023/04/16 10:31:38;;;;;;;0.30;0.30;;;15.80;74.30;;;;;;5035695;28;20026;-68
2023/04/16 10:34:04;;;;;;;0.30;0.30;;;15.80;74.40;;;;;;5001367;28;20026;-68
2023/04/16 10:36:32;;;;;;;0.30;0.30;;;15.80;74.30;;;;;;5017895;28;20061;-68
2023/04/16 10:38:58;;;;;;;0.70;0.38;;;15.80;74.30;;;;;;5018167;28;20030;-68
2023/04/16 10:41:25;;;;;;;0.63;0.40;;;15.80;74.40;;;;;;5017738;28;20033;-68
2023/04/16 10:43:51;;;;;;;0.40;0.30;;;15.80;74.40;;;;;;5033840;28;20443;-68
2023/04/16 10:46:23;;;;;;;0.40;0.30;;;15.80;74.30;;;;;;5034400;28;20064;-68
2023/04/16 10:48:53;;;;;;;0.52;0.52;;;15.80;74.40;;;;;;5035083;28;20052;-68
2023/04/16 10:51:34;;;;;;;0.30;0.30;;;15.80;74.40;;;;;;5017599;28;20021;-68
2023/04/16 10:54:11;;;;;;;0.45;0.40;;;15.80;74.40;;;;;;5033704;28;20107;-68
2023/04/16 10:56:37;;;;;;;0.30;0.30;;;15.80;74.50;;;;;;5035096;28;20034;-68
2023/04/16 10:59:06;;;;;;;0.32;0.30;;;15.90;74.50;;;;;;5034972;28;20066;-68
2023/04/16 11:01:33;;;;;;;0.28;0.20;;;15.80;74.40;;;;;;5033779;28;20044;-68
2023/04/16 11:04:03;;;;;;;0.65;0.20;;;15.80;74.40;;;;;;5033606;28;20021;-68
2023/04/16 11:06:28;;;;;;;0.32;0.32;;;15.90;74.50;;;;;;5033780;28;20021;-68
2023/04/16 11:08:54;;;;;;;0.30;0.22;;;15.90;74.50;;;;;;5033682;28;20028;-68
2023/04/16 11:11:20;;;;;;;0.30;0.30;;;15.80;74.40;;;;;;5034826;28;20105;-68
2023/04/16 11:13:46;;;;;;;0.30;0.30;;;15.90;74.50;;;;;;5033512;28;20100;-68
2023/04/16 11:16:15;;;;;;;0.85;0.30;;;15.90;74.40;;;;;;5033793;28;20112;-68
2023/04/16 11:18:41;;;;;;;0.28;0.28;;;15.80;74.40;;;;;;5033423;28;20076;-68
2023/04/16 11:21:11;;;;;;;0.73;0.30;;;15.90;74.50;;;;;;5033633;28;20057;-68
2023/04/16 11:23:47;;;;;;;0.30;0.30;;;15.90;74.50;;;;;;5017118;28;20022;-68
2023/04/16 11:26:23;;;;;;;0.30;0.30;;;15.90;74.50;;;;;;5017108;28;20501;-68
2023/04/16 11:28:49;;;;;;;0.30;0.30;;;15.90;74.50;;;;;;5034800;28;20458;-68
2023/04/16 11:31:15;;;;;;;0.45;0.40;;;15.90;74.50;;;;;;5034571;28;20129;-68
2023/04/16 11:33:41;;;;;;;0.30;0.30;;;15.90;74.50;;;;;;5034308;28;20033;-68
2023/04/16 11:36:07;;;;;;;0.50;0.30;;;15.90;74.50;;;;;;5033234;28;20040;-68
2023/04/16 11:38:36;;;;;;;0.30;0.30;;;15.90;74.50;;;;;;5016643;28;20026;-68
2023/04/16 11:41:02;;;;;;;0.30;0.30;;;15.90;74.50;;;;;;5033158;28;20052;-68
2023/04/16 11:43:28;;;;;;;0.45;0.45;;;15.90;74.50;;;;;;5016449;28;20114;-68
2023/04/16 11:45:59;;;;;;;0.30;0.30;;;15.90;74.50;;;;;;5033036;28;20033;-68
2023/04/16 11:48:25;;;;;;;0.28;0.28;;;15.90;74.50;;;;;;5033931;28;20096;-68
2023/04/16 11:50:55;;;;;;;0.28;0.28;;;15.90;74.50;;;;;;5016540;28;20168;-68
2023/04/16 11:53:21;;;;;;;0.20;0.20;;;15.90;74.50;;;;;;5034034;28;20017;-68
2023/04/16 11:55:47;;;;;;;0.43;0.30;;;15.90;74.50;;;;;;5033859;28;20056;-68
2023/04/16 11:58:14;;;;;;;0.32;0.30;;;15.90;74.50;;;;;;5032930;28;20079;-68
2023/04/16 12:00:40;;;;;;;0.43;0.30;;;15.90;74.50;;;;;;5033818;28;20113;-68
2023/04/16 12:03:06;;;;;;;0.17;0.17;;;15.90;74.50;;;;;;5032355;28;20096;-68
2023/04/16 12:05:33;;;;;;;0.30;0.30;;;15.90;74.50;;;;;;5033844;28;20043;-68
2023/04/16 12:08:06;;;;;;;0.28;0.20;;;15.90;74.50;;;;;;5016268;28;20026;-68
2023/04/16 12:10:36;;;;;;;0.20;0.20;;;15.90;74.50;;;;;;5032513;28;20030;-68
2023/04/16 12:13:11;;;;;;;0.20;0.20;;;16.00;74.60;;;;;;5032530;28;20088;-68
2023/04/16 12:15:50;;;;;;;0.30;0.30;;;16.00;74.60;;;;;;5032502;28;20071;-68
2023/04/16 12:18:17;;;;;;;0.28;0.28;;;15.90;74.50;;;;;;5032395;28;20053;-68
2023/04/16 12:20:43;;;;;;;0.30;0.30;;;16.00;74.60;;;;;;5032251;28;20025;-68
2023/04/16 12:23:10;;;;;;;0.20;0.20;;;16.00;74.60;;;;;;5032302;28;20029;-68
2023/04/16 12:25:35;;;;;;;0.30;0.30;;;15.90;74.50;;;;;;5016218;28;20105;-68
2023/04/16 12:28:01;;;;;;;0.30;0.20;;;16.00;74.60;;;;;;5033269;28;20104;-68
2023/04/16 12:30:28;;;;;;;0.20;0.20;;;16.00;74.60;;;;;;5015708;28;20100;-68
2023/04/16 12:33:14;;;;;;;0.22;0.22;;;16.00;74.60;;;;;;5015953;28;20563;-68
2023/04/16 12:35:42;;;;;;;1.00;0.30;;;16.00;74.60;;;;;;5032165;28;20029;-68
2023/04/16 12:38:07;;;;;;;0.30;0.30;;;16.00;74.60;;;;;;5015947;28;20037;-68
2023/04/16 12:40:34;;;;;;;0.20;0.20;;;16.00;74.60;;;;;;5031974;28;20029;-68
2023/04/16 12:43:00;;;;;;;0.30;0.30;;;16.00;74.60;;;;;;5031996;28;20032;-68